Aérodrome :
LOGIN :

S'inscrire | Disclaimer

   EN    FR    IT 

 










Légende :    VFR   VFR Marginal   IFR   IFR Intensif   IFR Très Intensif
Visi : 
Plafond : 
>= 8 km
>= 3000ft
5 à 8 km
1000 à 3000 ft
1500m à 5 km
500 à 1000 ft
800 à 1500m
200 à 500 ft
< 800m
< 200 ft
Symboles :   Orages  Brouillard  Fortes neiges  Fortes précipitations  Vent > 20 kt
SIGMETs :   Divers  Orages  Givrage  Turbulence  Onde Orograph.  Cendres Volcan.







- Altitude de l'aérodrome : 37 ft


EHVL - Vlieland Heliport

DERNIER METAR :
  • 271255Z AUTO 36013KT 9999 FEW016 OVC019 16/12 Q1030 WHT

METARs EXPIRÉS :
  • 271237Z AUTO /////KT 9999 // ///////// 16/12 Q//// BLU
  • 271225Z AUTO 36013KT 9999 FEW018 OVC021 16/12 Q1030 WHT
  • 271155Z AUTO 36013KT 9999 FEW018 OVC021 17/12 Q1030 REUP WHT
  • 271142Z AUTO 36013KT 9999 SCT018 OVC021 16/11 Q1031 WHT
  • 271135Z AUTO 36012KT 9999 UP SCT017 OVC020 16/11 Q1031 WHT
  • 271125Z AUTO 36012KT 9999 BKN019 OVC023 17/12 Q1031 WHT
  • 271055Z AUTO 36012KT 9999 OVC016 16/12 Q1030 WHT
  • 271025Z AUTO 36012KT 9999 OVC018 16/12 Q1030 WHT
  • 270955Z AUTO 36014KT 9999 OVC015 15/11 Q1030 WHT

Prévision TAF périmée.
Pas de NOTAMs connus pour ce terrain.



MET'MAP, la Météo Aéronautique d'un coup d'oeil ! - Copyright ORBIFLY Décembre 2007 - Disclaimer

ORBIFLY MET'MAP TEAM :

Programmation & Développement : Alexandra Zaïnal
Conception & Développement : Baudouin d'Aumeries
Co-Programmation & Développement : Marc-Olivier Méhu
Soutien technique & logistique : Manuel Goepfert

Contact : metmap@orbifly.com




SOURCES & CREDITS :

   NOAA